sensor_id;sensor_type;location;lat;lon;timestamp;P1;durP1;ratioP1;P2;durP2;ratioP2
74851;SDS011;63400;50.650;6.832;2022-09-24T12:45:39;18.00;;;9.20;;
74851;SDS011;63400;50.650;6.832;2022-09-24T12:50:31;15.52;;;8.68;;
74851;SDS011;63400;50.650;6.832;2022-09-24T12:52:57;10.25;;;4.90;;
74851;SDS011;63400;50.650;6.832;2022-09-24T12:55:24;11.90;;;4.07;;
74851;SDS011;63400;50.650;6.832;2022-09-24T12:57:57;10.95;;;3.92;;
74851;SDS011;63400;50.650;6.832;2022-09-24T13:01:03;10.48;;;3.70;;
74851;SDS011;63400;50.650;6.832;2022-09-24T13:05:59;14.75;;;7.70;;
74851;SDS011;63400;50.650;6.832;2022-09-24T13:08:29;14.32;;;7.22;;
74851;SDS011;63400;50.650;6.832;2022-09-24T13:11:04;13.25;;;7.25;;
74851;SDS011;63400;50.650;6.832;2022-09-24T13:13:56;15.73;;;7.97;;
74851;SDS011;63400;50.650;6.832;2022-09-24T14:28:52;21.00;;;10.10;;
74851;SDS011;63400;50.650;6.832;2022-09-24T14:31:18;19.95;;;9.07;;
74851;SDS011;63400;50.650;6.832;2022-09-24T14:35:55;17.15;;;7.78;;
74851;SDS011;63400;50.650;6.832;2022-09-24T14:38:30;20.08;;;8.10;;
74851;SDS011;63400;50.650;6.832;2022-09-24T14:41:12;19.05;;;8.30;;
74851;SDS011;63400;50.650;6.832;2022-09-24T14:46:12;10.10;;;5.20;;
74851;SDS011;63400;50.650;6.832;2022-09-24T14:50:45;19.38;;;6.97;;
74851;SDS011;63400;50.650;6.832;2022-09-24T14:55:51;15.30;;;5.15;;
74851;SDS011;63400;50.650;6.832;2022-09-24T15:00:55;12.48;;;5.72;;
74851;SDS011;63400;50.650;6.832;2022-09-24T15:03:27;14.57;;;7.70;;
74851;SDS011;63400;50.650;6.832;2022-09-24T15:06:19;14.40;;;7.22;;
74851;SDS011;63400;50.650;6.832;2022-09-24T15:08:55;13.57;;;7.47;;
74851;SDS011;63400;50.650;6.832;2022-09-24T15:11:33;15.27;;;7.60;;
74851;SDS011;63400;50.650;6.832;2022-09-24T15:14:01;16.10;;;7.88;;
74851;SDS011;63400;50.650;6.832;2022-09-24T15:16:33;16.00;;;7.78;;
74851;SDS011;63400;50.650;6.832;2022-09-24T15:21:42;15.70;;;7.15;;
74851;SDS011;63400;50.650;6.832;2022-09-24T15:24:07;15.60;;;7.60;;
74851;SDS011;63400;50.650;6.832;2022-09-24T15:26:34;15.15;;;7.90;;
74851;SDS011;63400;50.650;6.832;2022-09-24T15:29:00;16.80;;;8.15;;
74851;SDS011;63400;50.650;6.832;2022-09-24T15:31:26;14.55;;;8.85;;
74851;SDS011;63400;50.650;6.832;2022-09-24T15:33:52;14.27;;;8.52;;
74851;SDS011;63400;50.650;6.832;2022-09-24T15:36:18;14.75;;;7.82;;
74851;SDS011;63400;50.650;6.832;2022-09-24T15:38:51;14.63;;;7.78;;
74851;SDS011;63400;50.650;6.832;2022-09-24T15:41:17;13.50;;;7.88;;
74851;SDS011;63400;50.650;6.832;2022-09-24T15:43:44;12.40;;;7.55;;
74851;SDS011;63400;50.650;6.832;2022-09-24T15:46:09;16.08;;;7.43;;
74851;SDS011;63400;50.650;6.832;2022-09-24T15:48:34;14.65;;;7.40;;
74851;SDS011;63400;50.650;6.832;2022-09-24T15:51:00;16.25;;;7.88;;
74851;SDS011;63400;50.650;6.832;2022-09-24T15:53:26;16.13;;;7.90;;
74851;SDS011;63400;50.650;6.832;2022-09-24T15:55:55;15.00;;;7.60;;
74851;SDS011;63400;50.650;6.832;2022-09-24T15:58:22;13.77;;;7.28;;
74851;SDS011;63400;50.650;6.832;2022-09-24T16:00:48;12.48;;;7.25;;
74851;SDS011;63400;50.650;6.832;2022-09-24T16:03:26;14.93;;;6.82;;
74851;SDS011;63400;50.650;6.832;2022-09-24T16:05:53;11.07;;;5.97;;
74851;SDS011;63400;50.650;6.832;2022-09-24T16:08:19;12.25;;;5.70;;
74851;SDS011;63400;50.650;6.832;2022-09-24T16:10:45;13.70;;;6.68;;
74851;SDS011;63400;50.650;6.832;2022-09-24T16:13:12;13.43;;;5.65;;
74851;SDS011;63400;50.650;6.832;2022-09-24T16:15:38;13.70;;;6.28;;
74851;SDS011;63400;50.650;6.832;2022-09-24T16:18:04;12.52;;;6.15;;
74851;SDS011;63400;50.650;6.832;2022-09-24T16:20:31;11.75;;;5.57;;
74851;SDS011;63400;50.650;6.832;2022-09-24T16:22:56;12.10;;;6.20;;
74851;SDS011;63400;50.650;6.832;2022-09-24T16:25:22;8.95;;;5.13;;
74851;SDS011;63400;50.650;6.832;2022-09-24T16:27:47;10.57;;;5.85;;
74851;SDS011;63400;50.650;6.832;2022-09-24T16:30:13;9.90;;;5.60;;
74851;SDS011;63400;50.650;6.832;2022-09-24T16:32:39;10.07;;;5.15;;
74851;SDS011;63400;50.650;6.832;2022-09-24T16:35:05;8.82;;;5.50;;
74851;SDS011;63400;50.650;6.832;2022-09-24T16:37:30;10.52;;;4.53;;
74851;SDS011;63400;50.650;6.832;2022-09-24T16:39:56;10.93;;;5.13;;
74851;SDS011;63400;50.650;6.832;2022-09-24T16:42:21;9.10;;;5.15;;
74851;SDS011;63400;50.650;6.832;2022-09-24T16:44:50;10.40;;;4.78;;
74851;SDS011;63400;50.650;6.832;2022-09-24T16:47:15;9.88;;;4.20;;
74851;SDS011;63400;50.650;6.832;2022-09-24T16:52:08;13.27;;;4.90;;
74851;SDS011;63400;50.650;6.832;2022-09-24T16:54:34;9.30;;;4.70;;
74851;SDS011;63400;50.650;6.832;2022-09-24T16:56:59;10.55;;;5.15;;
74851;SDS011;63400;50.650;6.832;2022-09-24T16:59:27;8.82;;;5.22;;
74851;SDS011;63400;50.650;6.832;2022-09-24T17:01:52;11.60;;;5.22;;
74851;SDS011;63400;50.650;6.832;2022-09-24T17:04:18;10.13;;;4.63;;
74851;SDS011;63400;50.650;6.832;2022-09-24T17:06:44;11.13;;;4.53;;
74851;SDS011;63400;50.650;6.832;2022-09-24T17:09:11;8.88;;;3.55;;
74851;SDS011;63400;50.650;6.832;2022-09-24T17:11:55;9.00;;;3.97;;
74851;SDS011;63400;50.650;6.832;2022-09-24T17:14:21;6.72;;;3.38;;
74851;SDS011;63400;50.650;6.832;2022-09-24T17:16:47;6.05;;;2.72;;
74851;SDS011;63400;50.650;6.832;2022-09-24T17:19:12;6.55;;;3.38;;
74851;SDS011;63400;50.650;6.832;2022-09-24T17:21:39;6.30;;;2.50;;
74851;SDS011;63400;50.650;6.832;2022-09-24T17:24:07;5.78;;;2.75;;
74851;SDS011;63400;50.650;6.832;2022-09-24T17:26:33;6.88;;;2.75;;
74851;SDS011;63400;50.650;6.832;2022-09-24T17:28:59;6.53;;;2.40;;
74851;SDS011;63400;50.650;6.832;2022-09-24T17:31:24;5.18;;;3.13;;
74851;SDS011;63400;50.650;6.832;2022-09-24T17:33:56;5.30;;;2.33;;
74851;SDS011;63400;50.650;6.832;2022-09-24T17:36:24;4.60;;;2.45;;
74851;SDS011;63400;50.650;6.832;2022-09-24T17:38:50;5.15;;;2.03;;
74851;SDS011;63400;50.650;6.832;2022-09-24T17:41:16;3.90;;;1.75;;
74851;SDS011;63400;50.650;6.832;2022-09-24T17:43:41;3.63;;;2.03;;
74851;SDS011;63400;50.650;6.832;2022-09-24T17:46:11;3.78;;;2.00;;
74851;SDS011;63400;50.650;6.832;2022-09-24T17:48:39;4.07;;;2.30;;
74851;SDS011;63400;50.650;6.832;2022-09-24T17:51:15;4.70;;;2.28;;
74851;SDS011;63400;50.650;6.832;2022-09-24T17:53:52;5.57;;;2.35;;
74851;SDS011;63400;50.650;6.832;2022-09-24T17:56:20;5.00;;;1.70;;
74851;SDS011;63400;50.650;6.832;2022-09-24T17:58:46;4.55;;;1.92;;
74851;SDS011;63400;50.650;6.832;2022-09-24T18:01:13;3.17;;;1.70;;
74851;SDS011;63400;50.650;6.832;2022-09-24T18:03:41;5.88;;;1.90;;
74851;SDS011;63400;50.650;6.832;2022-09-24T18:06:08;3.72;;;2.13;;
74851;SDS011;63400;50.650;6.832;2022-09-24T18:08:35;4.20;;;2.53;;
74851;SDS011;63400;50.650;6.832;2022-09-24T18:11:02;4.22;;;2.03;;
74851;SDS011;63400;50.650;6.832;2022-09-24T18:13:29;4.50;;;1.92;;
74851;SDS011;63400;50.650;6.832;2022-09-24T18:16:02;5.32;;;2.17;;
74851;SDS011;63400;50.650;6.832;2022-09-24T18:18:28;5.03;;;1.73;;
74851;SDS011;63400;50.650;6.832;2022-09-24T18:20:53;3.95;;;1.80;;
74851;SDS011;63400;50.650;6.832;2022-09-24T18:23:19;4.05;;;1.73;;
74851;SDS011;63400;50.650;6.832;2022-09-24T18:25:45;3.05;;;1.58;;
74851;SDS011;63400;50.650;6.832;2022-09-24T18:28:11;3.58;;;1.85;;
74851;SDS011;63400;50.650;6.832;2022-09-24T18:30:38;4.55;;;1.88;;
74851;SDS011;63400;50.650;6.832;2022-09-24T18:33:03;3.90;;;1.58;;
74851;SDS011;63400;50.650;6.832;2022-09-24T18:35:29;2.85;;;1.48;;
74851;SDS011;63400;50.650;6.832;2022-09-24T18:37:54;4.45;;;1.80;;
74851;SDS011;63400;50.650;6.832;2022-09-24T18:40:19;4.60;;;2.03;;
74851;SDS011;63400;50.650;6.832;2022-09-24T18:42:45;4.38;;;1.75;;
74851;SDS011;63400;50.650;6.832;2022-09-24T18:45:11;3.70;;;1.88;;
74851;SDS011;63400;50.650;6.832;2022-09-24T18:47:36;3.42;;;1.88;;
74851;SDS011;63400;50.650;6.832;2022-09-24T18:50:02;3.85;;;1.75;;
74851;SDS011;63400;50.650;6.832;2022-09-24T18:52:28;3.90;;;1.98;;
74851;SDS011;63400;50.650;6.832;2022-09-24T18:54:53;4.60;;;2.50;;
74851;SDS011;63400;50.650;6.832;2022-09-24T18:57:19;5.32;;;2.05;;
74851;SDS011;63400;50.650;6.832;2022-09-24T18:59:44;3.90;;;2.25;;
74851;SDS011;63400;50.650;6.832;2022-09-24T19:02:11;5.10;;;2.13;;
74851;SDS011;63400;50.650;6.832;2022-09-24T19:04:37;5.25;;;2.30;;
74851;SDS011;63400;50.650;6.832;2022-09-24T19:07:04;4.10;;;2.08;;
74851;SDS011;63400;50.650;6.832;2022-09-24T19:09:32;5.00;;;2.35;;
74851;SDS011;63400;50.650;6.832;2022-09-24T19:11:59;3.67;;;2.20;;
74851;SDS011;63400;50.650;6.832;2022-09-24T19:14:25;3.83;;;1.90;;
74851;SDS011;63400;50.650;6.832;2022-09-24T19:16:51;4.40;;;2.33;;
74851;SDS011;63400;50.650;6.832;2022-09-24T19:19:20;5.35;;;2.30;;
74851;SDS011;63400;50.650;6.832;2022-09-24T19:21:48;3.65;;;2.10;;
74851;SDS011;63400;50.650;6.832;2022-09-24T19:24:15;4.07;;;2.22;;
74851;SDS011;63400;50.650;6.832;2022-09-24T19:26:41;3.63;;;1.95;;
74851;SDS011;63400;50.650;6.832;2022-09-24T19:29:07;6.50;;;2.40;;
74851;SDS011;63400;50.650;6.832;2022-09-24T19:31:34;6.35;;;2.20;;
74851;SDS011;63400;50.650;6.832;2022-09-24T19:34:01;4.53;;;2.03;;
74851;SDS011;63400;50.650;6.832;2022-09-24T19:36:27;5.30;;;2.17;;
74851;SDS011;63400;50.650;6.832;2022-09-24T19:38:53;9.40;;;2.00;;
74851;SDS011;63400;50.650;6.832;2022-09-24T19:41:22;7.10;;;2.25;;
74851;SDS011;63400;50.650;6.832;2022-09-24T19:43:53;4.78;;;1.98;;
74851;SDS011;63400;50.650;6.832;2022-09-24T19:46:21;7.20;;;2.25;;
74851;SDS011;63400;50.650;6.832;2022-09-24T19:48:50;5.85;;;2.22;;
74851;SDS011;63400;50.650;6.832;2022-09-24T19:51:20;4.43;;;2.20;;
74851;SDS011;63400;50.650;6.832;2022-09-24T19:53:54;6.90;;;1.88;;
74851;SDS011;63400;50.650;6.832;2022-09-24T19:56:24;6.03;;;2.35;;
74851;SDS011;63400;50.650;6.832;2022-09-24T19:58:53;4.25;;;2.08;;
74851;SDS011;63400;50.650;6.832;2022-09-24T20:01:21;5.55;;;2.50;;
74851;SDS011;63400;50.650;6.832;2022-09-24T20:03:48;5.30;;;2.05;;
74851;SDS011;63400;50.650;6.832;2022-09-24T20:06:15;4.50;;;1.98;;
74851;SDS011;63400;50.650;6.832;2022-09-24T20:08:48;5.72;;;2.35;;
74851;SDS011;63400;50.650;6.832;2022-09-24T20:11:15;4.70;;;2.30;;
74851;SDS011;63400;50.650;6.832;2022-09-24T20:13:45;4.47;;;2.00;;
74851;SDS011;63400;50.650;6.832;2022-09-24T20:16:16;3.95;;;2.13;;
74851;SDS011;63400;50.650;6.832;2022-09-24T20:18:47;4.90;;;2.28;;
74851;SDS011;63400;50.650;6.832;2022-09-24T20:21:13;5.05;;;2.15;;
74851;SDS011;63400;50.650;6.832;2022-09-24T20:23:43;3.53;;;2.10;;
74851;SDS011;63400;50.650;6.832;2022-09-24T20:26:10;3.58;;;1.90;;
74851;SDS011;63400;50.650;6.832;2022-09-24T20:28:55;4.38;;;2.10;;
74851;SDS011;63400;50.650;6.832;2022-09-24T20:31:22;3.88;;;2.08;;
74851;SDS011;63400;50.650;6.832;2022-09-24T20:33:47;4.10;;;1.25;;
74851;SDS011;63400;50.650;6.832;2022-09-24T20:36:14;3.88;;;2.20;;
74851;SDS011;63400;50.650;6.832;2022-09-24T20:38:40;4.30;;;1.90;;
74851;SDS011;63400;50.650;6.832;2022-09-24T20:41:07;4.15;;;1.95;;
74851;SDS011;63400;50.650;6.832;2022-09-24T20:43:33;4.53;;;1.95;;
74851;SDS011;63400;50.650;6.832;2022-09-24T20:45:59;4.35;;;2.35;;
74851;SDS011;63400;50.650;6.832;2022-09-24T20:48:25;4.47;;;2.20;;
74851;SDS011;63400;50.650;6.832;2022-09-24T20:50:51;2.45;;;1.45;;
74851;SDS011;63400;50.650;6.832;2022-09-24T20:53:17;4.47;;;2.13;;
74851;SDS011;63400;50.650;6.832;2022-09-24T20:55:43;4.68;;;2.60;;
74851;SDS011;63400;50.650;6.832;2022-09-24T20:58:08;4.70;;;1.60;;
74851;SDS011;63400;50.650;6.832;2022-09-24T21:00:37;5.15;;;2.20;;
74851;SDS011;63400;50.650;6.832;2022-09-24T21:03:13;4.47;;;2.13;;
74851;SDS011;63400;50.650;6.832;2022-09-24T21:05:40;4.45;;;2.22;;
74851;SDS011;63400;50.650;6.832;2022-09-24T21:08:07;3.80;;;2.22;;
74851;SDS011;63400;50.650;6.832;2022-09-24T21:10:33;3.97;;;2.13;;
74851;SDS011;63400;50.650;6.832;2022-09-24T21:12:59;4.25;;;1.92;;
74851;SDS011;63400;50.650;6.832;2022-09-24T21:15:25;3.45;;;1.73;;
74851;SDS011;63400;50.650;6.832;2022-09-24T21:17:51;4.15;;;1.95;;
74851;SDS011;63400;50.650;6.832;2022-09-24T21:20:17;3.17;;;1.77;;
74851;SDS011;63400;50.650;6.832;2022-09-24T21:22:43;3.33;;;1.92;;
74851;SDS011;63400;50.650;6.832;2022-09-24T21:25:09;3.65;;;1.98;;
74851;SDS011;63400;50.650;6.832;2022-09-24T21:27:35;5.00;;;1.95;;
74851;SDS011;63400;50.650;6.832;2022-09-24T21:30:00;4.15;;;2.08;;
74851;SDS011;63400;50.650;6.832;2022-09-24T21:32:27;5.20;;;1.67;;
74851;SDS011;63400;50.650;6.832;2022-09-24T21:34:53;4.07;;;1.80;;
74851;SDS011;63400;50.650;6.832;2022-09-24T21:37:18;4.07;;;2.15;;
74851;SDS011;63400;50.650;6.832;2022-09-24T21:39:44;3.08;;;1.90;;
74851;SDS011;63400;50.650;6.832;2022-09-24T21:42:10;4.72;;;2.13;;
74851;SDS011;63400;50.650;6.832;2022-09-24T21:44:36;3.78;;;1.67;;
74851;SDS011;63400;50.650;6.832;2022-09-24T21:47:02;3.85;;;1.60;;
74851;SDS011;63400;50.650;6.832;2022-09-24T21:49:28;4.75;;;2.03;;
74851;SDS011;63400;50.650;6.832;2022-09-24T21:52:00;3.97;;;2.03;;
74851;SDS011;63400;50.650;6.832;2022-09-24T21:54:28;4.57;;;1.90;;
74851;SDS011;63400;50.650;6.832;2022-09-24T21:56:57;4.38;;;1.60;;
74851;SDS011;63400;50.650;6.832;2022-09-24T21:59:23;3.83;;;1.67;;
74851;SDS011;63400;50.650;6.832;2022-09-24T22:02:07;4.97;;;1.95;;
74851;SDS011;63400;50.650;6.832;2022-09-24T22:04:33;5.05;;;1.92;;
74851;SDS011;63400;50.650;6.832;2022-09-24T22:06:59;3.70;;;1.33;;
74851;SDS011;63400;50.650;6.832;2022-09-24T22:09:25;3.47;;;2.00;;
74851;SDS011;63400;50.650;6.832;2022-09-24T22:11:51;2.63;;;1.98;;
74851;SDS011;63400;50.650;6.832;2022-09-24T22:14:17;5.32;;;2.20;;
74851;SDS011;63400;50.650;6.832;2022-09-24T22:16:43;2.63;;;2.10;;
74851;SDS011;63400;50.650;6.832;2022-09-24T22:19:08;3.13;;;2.00;;
74851;SDS011;63400;50.650;6.832;2022-09-24T22:21:34;4.30;;;2.30;;
74851;SDS011;63400;50.650;6.832;2022-09-24T22:23:59;4.15;;;1.80;;
74851;SDS011;63400;50.650;6.832;2022-09-24T22:26:25;3.17;;;2.17;;
74851;SDS011;63400;50.650;6.832;2022-09-24T22:28:51;3.80;;;2.03;;
74851;SDS011;63400;50.650;6.832;2022-09-24T22:31:17;3.33;;;1.50;;
74851;SDS011;63400;50.650;6.832;2022-09-24T22:33:43;3.38;;;1.60;;
74851;SDS011;63400;50.650;6.832;2022-09-24T22:36:27;3.08;;;1.65;;
74851;SDS011;63400;50.650;6.832;2022-09-24T22:38:54;3.40;;;2.03;;
74851;SDS011;63400;50.650;6.832;2022-09-24T22:41:21;3.85;;;1.80;;
74851;SDS011;63400;50.650;6.832;2022-09-24T22:43:46;3.17;;;1.50;;
74851;SDS011;63400;50.650;6.832;2022-09-24T22:46:12;2.78;;;1.80;;
74851;SDS011;63400;50.650;6.832;2022-09-24T22:48:38;3.70;;;1.88;;
74851;SDS011;63400;50.650;6.832;2022-09-24T22:51:04;3.53;;;1.48;;
74851;SDS011;63400;50.650;6.832;2022-09-24T22:53:34;4.03;;;1.45;;
74851;SDS011;63400;50.650;6.832;2022-09-24T22:56:08;3.05;;;2.08;;
74851;SDS011;63400;50.650;6.832;2022-09-24T22:58:35;4.22;;;2.03;;
74851;SDS011;63400;50.650;6.832;2022-09-24T23:01:08;3.55;;;1.85;;
74851;SDS011;63400;50.650;6.832;2022-09-24T23:03:35;4.30;;;1.88;;
74851;SDS011;63400;50.650;6.832;2022-09-24T23:06:01;2.83;;;1.52;;
74851;SDS011;63400;50.650;6.832;2022-09-24T23:08:30;3.80;;;2.03;;
74851;SDS011;63400;50.650;6.832;2022-09-24T23:11:07;3.70;;;1.35;;
74851;SDS011;63400;50.650;6.832;2022-09-24T23:13:34;4.13;;;1.25;;
74851;SDS011;63400;50.650;6.832;2022-09-24T23:16:44;3.53;;;1.65;;
74851;SDS011;63400;50.650;6.832;2022-09-24T23:18:52;3.85;;;1.88;;
74851;SDS011;63400;50.650;6.832;2022-09-24T23:21:19;4.38;;;1.92;;
74851;SDS011;63400;50.650;6.832;2022-09-24T23:26:16;5.93;;;1.90;;
74851;SDS011;63400;50.650;6.832;2022-09-24T23:28:43;3.22;;;1.55;;
74851;SDS011;63400;50.650;6.832;2022-09-24T23:31:11;3.28;;;1.45;;
74851;SDS011;63400;50.650;6.832;2022-09-24T23:33:38;3.38;;;1.98;;
74851;SDS011;63400;50.650;6.832;2022-09-24T23:36:05;3.50;;;1.95;;
74851;SDS011;63400;50.650;6.832;2022-09-24T23:38:32;3.83;;;2.20;;
74851;SDS011;63400;50.650;6.832;2022-09-24T23:40:57;3.15;;;1.50;;
74851;SDS011;63400;50.650;6.832;2022-09-24T23:43:25;3.85;;;1.83;;
74851;SDS011;63400;50.650;6.832;2022-09-24T23:48:17;3.42;;;1.80;;
74851;SDS011;63400;50.650;6.832;2022-09-24T23:50:42;2.67;;;1.40;;
74851;SDS011;63400;50.650;6.832;2022-09-24T23:53:08;3.22;;;1.83;;
74851;SDS011;63400;50.650;6.832;2022-09-24T23:55:35;4.00;;;2.17;;
74851;SDS011;63400;50.650;6.832;2022-09-24T23:58:00;3.53;;;1.70;;
